Time;durP1;ratioP1;P1;durP2;ratioP2;P2;SDS_P1;SDS_P2;PMS_P1;PMS_P2;Temp;Humidity;BMP_temperature;BMP_pressure;BME280_temperature;BME280_humidity;BME280_pressure;Samples;Min_cycle;Max_cycle;Signal;HPM_P1;HPM_P2
2022/04/20 00:01:24;;;;;;;6.18;3.78;;;2.50;99.90;;;;;;5056010;28;20025;-81
2022/04/20 00:03:50;;;;;;;5.55;3.70;;;2.40;99.90;;;;;;5054956;28;20021;-81
2022/04/20 00:06:16;;;;;;;6.55;3.72;;;2.30;99.90;;;;;;5053492;28;20083;-81
2022/04/20 00:08:42;;;;;;;6.22;3.33;;;2.30;99.90;;;;;;5054931;28;20024;-81
2022/04/20 00:11:08;;;;;;;5.03;3.40;;;2.20;99.90;;;;;;5054479;28;20029;-81
2022/04/20 00:13:34;;;;;;;8.00;4.00;;;2.10;99.90;;;;;;5054236;28;20037;-81
2022/04/20 00:16:00;;;;;;;5.07;3.53;;;2.10;99.90;;;;;;5054176;28;20466;-82
2022/04/20 00:18:26;;;;;;;6.03;3.35;;;2.00;99.90;;;;;;5055711;28;20029;-82
2022/04/20 00:20:51;;;;;;;5.18;3.40;;;2.00;99.90;;;;;;5054221;28;20048;-82
2022/04/20 00:23:17;;;;;;;5.68;3.45;;;1.90;99.90;;;;;;5054110;28;20024;-82
2022/04/20 00:25:43;;;;;;;4.63;3.22;;;2.00;99.90;;;;;;5054060;28;20021;-82
2022/04/20 00:28:08;;;;;;;5.20;3.53;;;2.00;99.90;;;;;;5054015;28;20053;-82
2022/04/20 00:30:34;;;;;;;5.10;3.38;;;1.90;99.90;;;;;;5054004;28;20103;-82
2022/04/20 00:33:00;;;;;;;5.03;3.47;;;1.90;99.90;;;;;;5052661;28;20067;-82
2022/04/20 00:35:26;;;;;;;8.02;3.95;;;1.90;99.90;;;;;;5053985;28;20052;-82
2022/04/20 00:37:51;;;;;;;5.57;3.17;;;1.80;99.90;;;;;;5051824;28;20029;-82
2022/04/20 00:40:17;;;;;;;4.30;3.30;;;1.80;99.90;;;;;;5052607;28;20504;-82
2022/04/20 00:42:43;;;;;;;5.93;3.58;;;1.70;99.90;;;;;;5054065;28;20029;-82
2022/04/20 00:45:11;;;;;;;6.00;3.47;;;1.70;99.90;;;;;;5052512;28;20393;-82
2022/04/20 00:47:38;;;;;;;4.15;3.28;;;1.70;99.90;;;;;;5052437;28;20027;-82
2022/04/20 00:50:06;;;;;;;5.45;3.03;;;1.70;99.90;;;;;;5052419;28;20401;-82
2022/04/20 00:52:32;;;;;;;6.38;3.88;;;1.70;99.90;;;;;;5053657;28;20025;-82
2022/04/20 00:54:58;;;;;;;5.15;3.60;;;1.80;99.90;;;;;;5052611;28;20086;-82
2022/04/20 00:57:24;;;;;;;5.90;3.70;;;1.80;99.90;;;;;;5053531;28;20366;-82
2022/04/20 00:59:52;;;;;;;5.93;3.75;;;1.90;99.90;;;;;;5053901;28;20028;-82
2022/04/20 01:02:19;;;;;;;5.30;3.83;;;2.00;99.90;;;;;;5053523;28;20477;-83
2022/04/20 01:04:45;;;;;;;6.65;4.15;;;2.10;99.90;;;;;;5053459;28;20418;-83
2022/04/20 01:07:16;;;;;;;5.30;3.50;;;2.00;99.90;;;;;;5053489;28;20211;-82
2022/04/20 01:09:44;;;;;;;6.82;3.30;;;1.90;99.90;;;;;;5053551;28;20028;-82
2022/04/20 01:12:13;;;;;;;5.35;3.40;;;1.90;99.90;;;;;;5052838;28;20032;-82
2022/04/20 01:14:39;;;;;;;5.82;3.10;;;1.90;99.90;;;;;;5052475;28;20033;-82
2022/04/20 01:17:06;;;;;;;5.90;3.30;;;1.90;99.90;;;;;;5052548;28;20074;-82
2022/04/20 01:19:36;;;;;;;5.15;3.40;;;1.80;99.90;;;;;;5053447;28;20493;-82
2022/04/20 01:22:02;;;;;;;4.82;3.08;;;1.80;99.90;;;;;;5053522;28;20473;-82
2022/04/20 01:24:29;;;;;;;6.15;3.05;;;1.80;99.90;;;;;;5052042;28;20025;-82
2022/04/20 01:26:56;;;;;;;5.43;3.17;;;1.70;99.90;;;;;;5053268;28;20021;-82
2022/04/20 01:29:22;;;;;;;5.90;3.50;;;1.70;99.90;;;;;;5052279;28;20029;-82
2022/04/20 01:31:48;;;;;;;6.25;3.65;;;1.70;99.90;;;;;;5051955;28;20032;-82
2022/04/20 01:34:13;;;;;;;6.25;3.35;;;1.70;99.90;;;;;;5051865;28;20021;-82
2022/04/20 01:36:39;;;;;;;4.47;2.97;;;1.70;99.90;;;;;;5053245;28;20199;-82
2022/04/20 01:39:05;;;;;;;4.55;2.97;;;1.70;99.90;;;;;;5053023;28;20045;-82
2022/04/20 01:41:31;;;;;;;5.35;3.22;;;1.60;99.90;;;;;;5052118;28;20025;-82
2022/04/20 01:43:56;;;;;;;5.38;3.38;;;1.60;99.90;;;;;;5051820;28;20021;-82
2022/04/20 01:46:22;;;;;;;5.05;3.13;;;1.60;99.90;;;;;;5054301;28;20025;-82
2022/04/20 01:48:48;;;;;;;5.57;3.60;;;1.50;99.90;;;;;;5054976;28;20021;-82
2022/04/20 01:53:57;;;;;;;6.13;3.15;;;1.60;99.90;;;;;;5056938;28;20032;-82
2022/04/20 01:56:23;;;;;;;4.68;3.00;;;1.70;99.90;;;;;;5057196;28;20029;-82
2022/04/20 01:58:49;;;;;;;4.20;2.78;;;1.70;99.90;;;;;;5056980;28;20026;-82
2022/04/20 02:03:58;;;;;;;4.95;3.40;;;1.80;99.90;;;;;;5056910;28;20028;-81
2022/04/20 02:06:24;;;;;;;5.53;3.33;;;1.80;99.90;;;;;;5055456;28;20029;-81
2022/04/20 02:08:50;;;;;;;8.18;3.67;;;1.80;99.90;;;;;;5056665;28;20078;-81
2022/04/20 02:11:15;;;;;;;4.88;3.33;;;1.80;99.90;;;;;;5056671;28;20020;-83
2022/04/20 02:13:41;;;;;;;6.65;3.47;;;1.80;99.90;;;;;;5054672;28;20028;-82
2022/04/20 02:16:07;;;;;;;5.88;3.65;;;1.80;99.90;;;;;;5055446;28;20025;-81
2022/04/20 02:18:32;;;;;;;4.30;2.80;;;1.80;99.90;;;;;;5056609;28;20021;-81
2022/04/20 02:20:58;;;;;;;4.05;3.03;;;1.90;99.90;;;;;;5055109;28;20028;-81
2022/04/20 02:23:23;;;;;;;6.03;3.75;;;1.80;99.90;;;;;;5056501;28;20017;-81
2022/04/20 02:25:49;;;;;;;6.07;3.55;;;1.80;99.90;;;;;;5056254;28;20021;-81
2022/04/20 02:28:15;;;;;;;5.20;3.45;;;1.70;99.90;;;;;;5055132;28;20025;-81
2022/04/20 02:30:41;;;;;;;4.78;3.17;;;1.70;99.90;;;;;;5056143;28;20496;-81
2022/04/20 02:33:06;;;;;;;5.32;3.70;;;1.60;99.90;;;;;;5056252;28;20096;-81
2022/04/20 02:35:32;;;;;;;4.78;3.38;;;1.60;99.90;;;;;;5055965;28;20097;-80
2022/04/20 02:37:59;;;;;;;4.97;2.95;;;1.60;99.90;;;;;;5056314;28;20385;-80
2022/04/20 02:40:25;;;;;;;5.57;2.90;;;1.70;99.90;;;;;;5056057;28;20032;-80
2022/04/20 02:42:51;;;;;;;4.82;3.08;;;1.70;99.90;;;;;;5056163;28;20100;-80
2022/04/20 02:45:16;;;;;;;6.15;3.25;;;1.70;99.90;;;;;;5056016;28;20025;-80
2022/04/20 02:47:43;;;;;;;6.47;3.83;;;1.70;99.90;;;;;;5054521;28;20099;-80
2022/04/20 02:50:09;;;;;;;5.50;3.60;;;1.70;99.90;;;;;;5056289;28;20033;-80
2022/04/20 02:52:34;;;;;;;6.13;3.65;;;1.70;99.90;;;;;;5055927;28;20038;-80
2022/04/20 02:55:00;;;;;;;6.00;3.10;;;1.70;99.90;;;;;;5055862;28;20051;-80
2022/04/20 02:57:26;;;;;;;5.32;3.45;;;1.70;99.90;;;;;;5055808;28;20036;-79
2022/04/20 02:59:52;;;;;;;4.13;2.88;;;1.70;99.90;;;;;;5055288;28;20469;-79
2022/04/20 03:02:18;;;;;;;5.28;3.20;;;1.70;99.90;;;;;;5055620;28;20382;-79
2022/04/20 03:04:43;;;;;;;4.53;3.13;;;1.70;99.90;;;;;;5055600;28;20033;-79
2022/04/20 03:07:09;;;;;;;5.93;3.00;;;1.70;99.90;;;;;;5054482;28;20032;-79
2022/04/20 03:09:35;;;;;;;4.68;3.13;;;1.70;99.90;;;;;;5055586;28;20032;-79
2022/04/20 03:12:01;;;;;;;6.20;3.50;;;1.70;99.90;;;;;;5054437;28;20036;-79
2022/04/20 03:14:26;;;;;;;5.13;3.67;;;1.70;99.90;;;;;;5056836;28;20025;-79
2022/04/20 03:16:52;;;;;;;6.85;4.10;;;1.70;99.90;;;;;;5055643;28;20033;-79
2022/04/20 03:19:18;;;;;;;5.65;4.10;;;1.60;99.90;;;;;;5056390;28;20025;-79
2022/04/20 03:21:44;;;;;;;6.13;4.25;;;1.60;99.90;;;;;;5055653;28;20024;-79
2022/04/20 03:24:09;;;;;;;4.75;3.55;;;1.60;99.90;;;;;;5055459;28;20033;-79
2022/04/20 03:26:35;;;;;;;4.70;3.33;;;1.60;99.90;;;;;;5055503;28;20025;-79
2022/04/20 03:29:01;;;;;;;6.20;3.28;;;1.60;99.90;;;;;;5054333;28;20021;-79
2022/04/20 03:31:26;;;;;;;5.00;3.75;;;1.60;99.90;;;;;;5055007;28;20469;-79
2022/04/20 03:33:52;;;;;;;5.80;3.50;;;1.60;99.90;;;;;;5055132;28;20025;-79
2022/04/20 03:36:18;;;;;;;5.55;3.33;;;1.50;99.90;;;;;;5055521;28;20025;-79
2022/04/20 03:38:44;;;;;;;5.20;3.47;;;1.60;99.90;;;;;;5056337;28;20021;-79
2022/04/20 03:41:10;;;;;;;7.82;6.57;;;1.50;99.90;;;;;;5056894;28;20028;-78
2022/04/20 03:43:35;;;;;;;8.20;6.32;;;1.50;99.90;;;;;;5056641;28;20025;-79
2022/04/20 03:46:01;;;;;;;8.23;6.90;;;1.50;99.90;;;;;;5054920;28;20025;-79
2022/04/20 03:48:26;;;;;;;7.75;6.00;;;1.40;99.90;;;;;;5055020;28;20028;-78
2022/04/20 03:50:52;;;;;;;6.28;4.10;;;1.40;99.90;;;;;;5053751;28;20042;-78
2022/04/20 03:53:18;;;;;;;5.63;3.50;;;1.40;99.90;;;;;;5055223;28;20108;-78
2022/04/20 03:55:44;;;;;;;6.75;4.30;;;1.30;99.90;;;;;;5053665;28;20068;-78
2022/04/20 03:58:10;;;;;;;5.35;4.07;;;1.30;99.90;;;;;;5055940;28;20041;-78
2022/04/20 04:00:35;;;;;;;6.20;4.20;;;1.30;99.90;;;;;;5053971;28;20029;-78
2022/04/20 04:03:01;;;;;;;6.78;4.55;;;1.30;99.90;;;;;;5055019;28;20024;-78
2022/04/20 04:05:27;;;;;;;9.73;4.30;;;1.20;99.90;;;;;;5054392;28;20052;-78
2022/04/20 04:07:53;;;;;;;6.22;3.97;;;1.20;99.90;;;;;;5054425;28;20067;-78
2022/04/20 04:10:18;;;;;;;5.60;3.83;;;1.20;99.90;;;;;;5054477;28;20025;-78
2022/04/20 04:12:44;;;;;;;5.85;3.88;;;1.20;99.90;;;;;;5054589;28;20477;-79
2022/04/20 04:15:11;;;;;;;7.60;4.40;;;1.20;99.90;;;;;;5052977;28;20112;-79
2022/04/20 04:17:36;;;;;;;24.38;14.30;;;1.20;99.90;;;;;;5052626;28;20125;-78
2022/04/20 04:20:04;;;;;;;30.52;17.25;;;1.20;99.90;;;;;;5054295;28;20096;-78
2022/04/20 04:22:30;;;;;;;25.98;15.88;;;1.20;99.90;;;;;;5054147;28;20044;-78
2022/04/20 04:24:59;;;;;;;18.23;11.63;;;1.10;99.90;;;;;;5054264;28;20021;-79
2022/04/20 04:27:24;;;;;;;11.20;7.60;;;1.10;99.90;;;;;;5054120;28;20094;-78
2022/04/20 04:29:50;;;;;;;15.55;8.02;;;1.10;99.90;;;;;;5052684;28;20024;-78
2022/04/20 04:32:16;;;;;;;18.55;10.63;;;1.10;99.90;;;;;;5053996;28;20397;-78
2022/04/20 04:34:42;;;;;;;44.00;18.90;;;1.10;99.90;;;;;;5053841;28;20025;-78
2022/04/20 04:37:13;;;;;;;44.30;21.10;;;1.10;99.90;;;;;;5054132;28;20572;-78
2022/04/20 04:39:38;;;;;;;;;;;1.10;99.90;;;;;;5054683;28;20032;-78
2022/04/20 04:42:04;;;;;;;47.50;21.02;;;1.10;99.90;;;;;;5052756;28;19994;-78
2022/04/20 04:44:32;;;;;;;36.83;16.58;;;1.10;99.90;;;;;;5053974;28;20023;-78
2022/04/20 04:49:42;;;;;;;15.40;8.30;;;1.10;99.90;;;;;;5053726;28;20081;-78
2022/04/20 04:52:11;;;;;;;11.55;6.53;;;1.10;99.90;;;;;;5054024;28;20090;-78
2022/04/20 04:54:39;;;;;;;11.50;6.20;;;1.10;99.90;;;;;;5054285;28;20449;-78
2022/04/20 04:57:07;;;;;;;9.15;5.82;;;1.10;99.90;;;;;;5053872;28;20051;-78
2022/04/20 04:59:34;;;;;;;8.70;5.57;;;1.10;99.90;;;;;;5054079;28;20036;-78
2022/04/20 05:02:00;;;;;;;8.38;5.22;;;1.10;99.90;;;;;;5052497;28;20040;-78
2022/04/20 05:04:26;;;;;;;8.90;5.35;;;1.10;99.90;;;;;;5054072;28;20451;-78
2022/04/20 05:06:51;;;;;;;8.05;5.00;;;1.10;99.90;;;;;;5053682;28;20025;-78
2022/04/20 05:09:17;;;;;;;8.07;4.80;;;1.10;99.90;;;;;;5053713;28;20078;-78
2022/04/20 05:11:43;;;;;;;8.32;5.78;;;1.10;99.90;;;;;;5054376;28;20029;-78
2022/04/20 05:14:09;;;;;;;8.00;5.50;;;1.10;99.90;;;;;;5052412;28;20400;-78
2022/04/20 05:16:35;;;;;;;7.95;5.22;;;1.20;99.90;;;;;;5054248;28;20031;-78
2022/04/20 05:19:01;;;;;;;16.73;7.85;;;1.20;99.90;;;;;;5052371;28;20028;-78
2022/04/20 05:21:27;;;;;;;12.10;6.43;;;1.20;99.90;;;;;;5053882;28;20025;-78
2022/04/20 05:23:54;;;;;;;9.40;6.03;;;1.20;99.90;;;;;;5057549;28;20098;-78
2022/04/20 05:26:20;;;;;;;12.15;6.25;;;1.30;99.90;;;;;;5059166;28;20029;-78
2022/04/20 05:28:46;;;;;;;8.93;5.97;;;1.30;99.90;;;;;;5060278;28;20029;-78
2022/04/20 05:31:11;;;;;;;17.00;9.07;;;1.30;99.90;;;;;;5059073;28;20027;-78
2022/04/20 05:33:37;;;;;;;16.70;8.20;;;1.20;99.90;;;;;;5060231;28;20370;-78
2022/04/20 05:36:03;;;;;;;16.23;8.35;;;1.20;99.90;;;;;;5060733;28;20508;-78
2022/04/20 05:43:56;;;;;;;11.68;6.82;;;1.30;99.90;;;;;;5060305;28;20449;-78
2022/04/20 05:46:22;;;;;;;14.70;6.80;;;1.30;99.90;;;;;;5059181;28;20060;-78
2022/04/20 05:48:48;;;;;;;13.82;8.32;;;1.40;99.90;;;;;;5060250;28;20029;-79
2022/04/20 05:51:13;;;;;;;15.32;9.00;;;1.40;99.90;;;;;;5060453;28;20451;-78
2022/04/20 05:53:39;;;;;;;15.10;9.48;;;1.30;99.90;;;;;;5060043;28;20029;-79
2022/04/20 05:56:05;;;;;;;13.15;7.35;;;1.40;99.90;;;;;;5059914;28;20025;-78
2022/04/20 05:58:31;;;;;;;10.98;6.55;;;1.40;99.90;;;;;;5060097;28;20485;-79
2022/04/20 06:00:56;;;;;;;11.73;6.75;;;1.40;99.90;;;;;;5059068;28;20021;-79
2022/04/20 06:03:22;;;;;;;10.23;6.75;;;1.50;99.90;;;;;;5059659;28;20029;-79
2022/04/20 06:05:47;;;;;;;8.70;5.70;;;1.50;99.90;;;;;;5060311;28;20024;-79
2022/04/20 06:08:13;;;;;;;7.85;4.95;;;1.50;99.90;;;;;;5060848;28;20064;-79
2022/04/20 06:10:39;;;;;;;7.93;5.65;;;1.50;99.90;;;;;;5059250;28;20021;-79
2022/04/20 06:13:04;;;;;;;11.35;6.65;;;1.60;99.90;;;;;;5060008;28;20044;-79
2022/04/20 06:15:30;;;;;;;9.90;5.25;;;1.60;99.90;;;;;;5060045;28;20017;-79
2022/04/20 06:17:55;;;;;;;10.70;5.47;;;1.60;99.90;;;;;;5059699;28;20051;-79
2022/04/20 06:20:21;;;;;;;9.35;5.75;;;1.60;99.90;;;;;;5058739;28;20067;-79
2022/04/20 06:22:47;;;;;;;9.70;6.55;;;1.60;99.90;;;;;;5060014;28;20021;-79
2022/04/20 06:25:13;;;;;;;11.73;6.97;;;1.70;99.90;;;;;;5059971;28;20025;-79
2022/04/20 06:27:38;;;;;;;12.73;5.80;;;1.70;99.90;;;;;;5059689;28;20056;-79
2022/04/20 06:30:05;;;;;;;10.77;6.70;;;1.60;99.90;;;;;;5059632;28;20065;-79
2022/04/20 06:32:31;;;;;;;15.35;7.53;;;1.60;99.90;;;;;;5059432;28;20450;-79
2022/04/20 06:34:57;;;;;;;12.40;8.30;;;1.70;99.90;;;;;;5055313;28;20393;-79
2022/04/20 06:37:23;;;;;;;10.20;6.13;;;1.70;99.90;;;;;;5056398;28;20059;-79
2022/04/20 06:39:49;;;;;;;11.38;6.65;;;1.80;99.90;;;;;;5056267;28;20576;-80
2022/04/20 06:42:16;;;;;;;10.18;6.57;;;1.80;99.90;;;;;;5056297;28;20052;-80
2022/04/20 06:44:42;;;;;;;8.52;5.82;;;1.80;99.90;;;;;;5056570;28;20099;-80
2022/04/20 06:47:07;;;;;;;12.00;7.32;;;1.90;99.90;;;;;;5054663;28;20468;-79
2022/04/20 06:49:33;;;;;;;10.63;6.90;;;2.00;99.90;;;;;;5056296;28;20119;-80
2022/04/20 07:00:12;;;;;;;17.35;9.20;;;2.60;99.90;;;;;;5056415;28;20032;-80
2022/04/20 07:02:38;;;;;;;18.48;9.98;;;2.70;99.90;;;;;;5055806;28;20083;-79
2022/04/20 07:05:05;;;;;;;15.13;8.88;;;2.80;99.90;;;;;;5056068;28;20029;-80
2022/04/20 07:07:31;;;;;;;12.70;8.38;;;2.90;99.90;;;;;;5054814;28;20029;-80
2022/04/20 07:09:57;;;;;;;13.27;8.00;;;3.10;99.90;;;;;;5056067;28;20054;-80
2022/04/20 07:12:22;;;;;;;12.38;7.43;;;3.20;99.90;;;;;;5057061;28;20087;-80
2022/04/20 07:14:48;;;;;;;12.13;7.85;;;3.30;99.90;;;;;;5060374;28;20469;-80
2022/04/20 07:17:15;;;;;;;11.98;6.68;;;3.50;99.90;;;;;;5058623;28;20025;-79
2022/04/20 07:19:40;;;;;;;14.90;6.90;;;3.60;99.90;;;;;;5056312;28;20074;-80
2022/04/20 07:22:06;;;;;;;10.07;7.30;;;3.70;99.90;;;;;;5055224;28;20112;-80
2022/04/20 07:24:32;;;;;;;11.70;7.10;;;3.80;99.90;;;;;;5055827;28;20021;-80
2022/04/20 07:26:57;;;;;;;11.68;7.07;;;3.90;99.90;;;;;;5055082;28;20392;-80
2022/04/20 07:29:23;;;;;;;12.10;7.20;;;4.00;99.90;;;;;;5057157;28;20040;-80
2022/04/20 07:31:48;;;;;;;12.43;7.25;;;4.10;99.90;;;;;;5055596;28;20021;-79
2022/04/20 07:34:14;;;;;;;11.65;7.35;;;4.30;99.90;;;;;;5055968;28;20461;-80
2022/04/20 07:36:40;;;;;;;12.30;6.35;;;4.40;99.90;;;;;;5055649;28;20112;-80
2022/04/20 07:39:05;;;;;;;8.40;5.97;;;4.50;99.90;;;;;;5055676;28;20370;-80
2022/04/20 07:41:31;;;;;;;13.05;7.28;;;4.60;99.90;;;;;;5054523;28;20481;-80
2022/04/20 07:43:57;;;;;;;13.30;8.43;;;4.80;99.90;;;;;;5055434;28;20025;-80
2022/04/20 07:46:22;;;;;;;11.45;7.38;;;4.90;99.90;;;;;;5053973;28;20021;-80
2022/04/20 07:48:48;;;;;;;14.07;8.55;;;5.00;99.90;;;;;;5056819;28;20380;-80
2022/04/20 07:51:17;;;;;;;11.75;8.45;;;5.20;99.90;;;;;;5057337;28;20078;-80
2022/04/20 07:53:42;;;;;;;14.23;8.85;;;5.40;99.90;;;;;;5057143;28;20025;-80
2022/04/20 07:56:08;;;;;;;11.60;7.60;;;5.50;99.90;;;;;;5056069;28;20035;-80
2022/04/20 07:58:34;;;;;;;8.45;6.10;;;5.70;99.90;;;;;;5055842;28;20029;-80
2022/04/20 08:00:59;;;;;;;10.98;6.65;;;5.80;99.90;;;;;;5055416;28;20023;-80
2022/04/20 08:03:25;;;;;;;9.70;6.43;;;5.90;99.90;;;;;;5055128;28;20021;-79
2022/04/20 08:05:52;;;;;;;10.43;6.63;;;6.00;99.90;;;;;;5055201;28;20025;-80
2022/04/20 08:08:19;;;;;;;12.13;7.57;;;6.20;99.90;;;;;;5055164;28;20386;-80
2022/04/20 08:10:45;;;;;;;11.73;7.35;;;6.30;99.90;;;;;;5054811;28;20021;-80
2022/04/20 08:15:56;;;;;;;12.32;7.68;;;6.60;99.90;;;;;;5054667;28;20476;-80
2022/04/20 08:18:22;;;;;;;10.75;6.82;;;6.80;99.90;;;;;;5054573;28;20100;-79
2022/04/20 08:20:48;;;;;;;9.02;5.95;;;6.90;99.90;;;;;;5054975;28;20017;-80
2022/04/20 08:23:14;;;;;;;11.10;6.05;;;7.10;99.90;;;;;;5055130;28;20527;-80
2022/04/20 08:25:41;;;;;;;7.22;5.07;;;7.30;99.90;;;;;;5055239;28;20063;-80
2022/04/20 08:28:08;;;;;;;7.95;5.25;;;7.40;99.90;;;;;;5056177;28;20485;-80
2022/04/20 08:30:37;;;;;;;6.95;4.93;;;7.60;99.90;;;;;;5056951;28;20537;-80
2022/04/20 08:33:07;;;;;;;7.78;4.88;;;7.70;99.90;;;;;;5057273;28;20025;-80
2022/04/20 08:35:35;;;;;;;9.18;5.97;;;7.80;99.90;;;;;;5077754;28;20013;-80
2022/04/20 08:38:01;;;;;;;7.75;5.93;;;7.90;99.90;;;;;;5078404;28;20016;-79
2022/04/20 08:40:29;;;;;;;7.72;5.60;;;8.00;99.90;;;;;;5078160;28;20115;-79
2022/04/20 08:42:57;;;;;;;8.63;5.68;;;8.20;99.90;;;;;;5078292;28;20017;-80
2022/04/20 08:45:24;;;;;;;11.13;5.43;;;8.30;99.90;;;;;;5078316;28;20033;-80
2022/04/20 08:47:50;;;;;;;11.73;5.13;;;8.40;97.80;;;;;;5078044;28;20063;-80
2022/04/20 08:50:16;;;;;;;7.43;5.50;;;8.40;97.50;;;;;;5078388;28;20061;-80
2022/04/20 08:52:46;;;;;;;9.93;5.60;;;8.60;97.60;;;;;;5078078;28;20029;-80
2022/04/20 08:55:17;;;;;;;10.90;6.25;;;8.60;97.50;;;;;;5078363;28;20025;-80
2022/04/20 08:57:45;;;;;;;9.07;5.85;;;8.80;97.40;;;;;;5077418;28;20056;-80
2022/04/20 09:00:27;;;;;;;7.32;5.43;;;8.90;97.30;;;;;;5066445;28;20025;-80
2022/04/20 09:02:57;;;;;;;6.28;3.70;;;9.10;97.00;;;;;;5063257;28;20017;-80
2022/04/20 09:05:25;;;;;;;6.75;3.40;;;9.20;94.80;;;;;;5070792;28;20044;-80
2022/04/20 09:07:51;;;;;;;6.57;3.42;;;9.30;92.70;;;;;;5062287;28;20036;-80
2022/04/20 09:10:18;;;;;;;4.68;3.25;;;9.50;92.00;;;;;;5061693;28;20024;-81
2022/04/20 09:12:45;;;;;;;3.60;2.58;;;9.60;90.90;;;;;;5061103;28;20021;-80
2022/04/20 09:15:28;;;;;;;3.75;2.45;;;9.80;85.00;;;;;;5061732;28;20095;-80
2022/04/20 09:17:56;;;;;;;4.75;2.90;;;9.80;82.30;;;;;;5060951;28;20033;-80
2022/04/20 09:20:21;;;;;;;4.93;2.53;;;9.80;84.50;;;;;;5061009;28;20048;-80
2022/04/20 09:23:13;;;;;;;5.18;3.17;;;9.90;85.70;;;;;;5061071;28;20025;-80
2022/04/20 09:25:45;;;;;;;3.10;2.42;;;10.00;83.40;;;;;;5059398;28;20021;-80
2022/04/20 09:28:11;;;;;;;5.30;2.70;;;10.10;86.50;;;;;;5059649;28;20036;-80
2022/04/20 09:30:39;;;;;;;4.40;2.60;;;10.20;85.80;;;;;;5059957;28;20017;-80
2022/04/20 09:33:10;;;;;;;4.05;2.17;;;10.40;85.70;;;;;;5059653;28;20070;-80
2022/04/20 09:35:46;;;;;;;3.95;2.45;;;10.50;84.90;;;;;;5060290;28;20025;-80
2022/04/20 09:38:13;;;;;;;3.67;2.53;;;10.60;86.20;;;;;;5058528;28;20033;-80
2022/04/20 09:40:39;;;;;;;6.43;2.92;;;10.70;87.00;;;;;;5060763;28;20428;-80
2022/04/20 09:43:15;;;;;;;3.75;2.60;;;10.90;86.80;;;;;;5060857;28;20017;-80
2022/04/20 09:45:41;;;;;;;5.15;2.47;;;11.00;84.50;;;;;;5059027;28;20029;-80
2022/04/20 09:51:12;;;;;;;4.65;2.58;;;11.20;81.30;;;;;;5060423;28;20059;-80
2022/04/20 09:53:38;;;;;;;3.55;2.72;;;11.30;85.30;;;;;;5060068;28;20029;-81
2022/04/20 09:56:18;;;;;;;4.50;3.13;;;11.40;80.70;;;;;;5059567;28;20048;-81
2022/04/20 09:58:44;;;;;;;5.13;2.75;;;11.40;80.20;;;;;;5059194;28;20029;-80
2022/04/20 10:01:30;;;;;;;5.05;3.10;;;11.50;81.00;;;;;;5059123;28;20051;-80
2022/04/20 10:03:57;;;;;;;5.85;2.80;;;11.70;76.50;;;;;;5058654;28;20074;-80
2022/04/20 10:06:22;;;;;;;4.03;2.55;;;11.70;77.10;;;;;;5056761;28;20025;-81
2022/04/20 10:08:50;;;;;;;3.28;2.58;;;11.80;78.00;;;;;;5059411;28;20039;-80
2022/04/20 10:11:16;;;;;;;3.55;2.30;;;11.90;76.90;;;;;;5062610;28;20028;-81
2022/04/20 10:13:42;;;;;;;4.20;2.70;;;12.10;73.70;;;;;;5063120;28;20021;-81
2022/04/20 10:16:11;;;;;;;3.75;1.98;;;12.10;75.10;;;;;;5060245;28;20104;-80
2022/04/20 10:18:41;;;;;;;3.40;2.30;;;12.20;72.50;;;;;;5056530;28;20024;-80
2022/04/20 10:21:12;;;;;;;5.57;2.40;;;12.30;75.70;;;;;;5055932;28;20023;-81
2022/04/20 10:23:45;;;;;;;3.17;2.15;;;12.30;72.80;;;;;;5056805;28;20025;-81
2022/04/20 10:26:12;;;;;;;5.53;2.20;;;12.40;72.20;;;;;;5056718;28;20029;-81
2022/04/20 10:28:59;;;;;;;6.90;2.10;;;12.50;71.50;;;;;;5055187;28;20366;-80
2022/04/20 10:31:42;;;;;;;3.58;1.88;;;12.50;72.10;;;;;;5056568;28;20052;-80
2022/04/20 10:34:17;;;;;;;3.92;2.20;;;12.70;71.60;;;;;;5056617;28;20493;-80
2022/04/20 10:36:57;;;;;;;4.72;1.98;;;12.80;72.30;;;;;;5056868;28;20036;-81
2022/04/20 10:39:24;;;;;;;2.63;1.52;;;12.90;69.50;;;;;;5056164;28;20029;-80
2022/04/20 10:42:11;;;;;;;3.40;1.85;;;13.00;66.30;;;;;;5056524;28;20017;-81
2022/04/20 10:44:55;;;;;;;4.93;2.20;;;13.10;64.40;;;;;;5056800;28;20028;-80
2022/04/20 10:47:24;;;;;;;4.88;2.00;;;13.20;65.30;;;;;;5055971;28;20052;-80
2022/04/20 10:49:53;;;;;;;2.60;1.63;;;13.20;68.60;;;;;;5055911;28;20056;-80
2022/04/20 10:52:24;;;;;;;2.83;1.63;;;13.30;64.60;;;;;;5054719;28;20025;-80
2022/04/20 10:54:53;;;;;;;4.32;1.60;;;13.40;63.50;;;;;;5055070;28;20025;-80
2022/04/20 10:57:36;;;;;;;2.65;1.60;;;13.50;62.20;;;;;;5056129;28;20033;-80
2022/04/20 11:00:20;;;;;;;2.55;1.38;;;13.60;59.60;;;;;;5054857;28;20052;-80
2022/04/20 11:03:05;;;;;;;3.78;1.77;;;13.60;59.40;;;;;;5055803;28;20025;-80
2022/04/20 11:05:32;;;;;;;4.13;1.60;;;13.60;59.60;;;;;;5056395;28;20021;-80
2022/04/20 11:08:12;;;;;;;2.90;1.60;;;13.70;62.20;;;;;;5054471;28;20389;-81
2022/04/20 11:19:11;;;;;;;3.20;1.77;;;13.90;63.30;;;;;;5055628;28;20036;-80
2022/04/20 11:21:37;;;;;;;3.78;1.80;;;14.10;59.80;;;;;;5054771;28;20052;-80
2022/04/20 11:24:08;;;;;;;2.15;1.38;;;14.20;61.50;;;;;;5054071;28;20185;-80
2022/04/20 11:26:47;;;;;;;3.88;1.63;;;14.40;57.90;;;;;;5055437;28;20056;-80
2022/04/20 11:29:18;;;;;;;3.67;1.70;;;14.40;58.40;;;;;;5055382;28;20632;-81
2022/04/20 11:31:48;;;;;;;2.20;1.37;;;14.40;58.20;;;;;;5055339;28;20029;-81
2022/04/20 11:34:17;;;;;;;3.03;1.75;;;14.40;59.40;;;;;;5055077;28;20029;-80
2022/04/20 11:36:44;;;;;;;3.25;2.00;;;14.60;61.90;;;;;;5053892;28;20489;-81
2022/04/20 11:39:11;;;;;;;3.03;1.92;;;14.50;57.70;;;;;;5055047;28;20025;-81
2022/04/20 11:41:38;;;;;;;2.40;1.52;;;14.70;59.10;;;;;;5054172;28;20028;-81
2022/04/20 11:44:18;;;;;;;2.80;1.95;;;14.80;58.40;;;;;;5055930;28;20036;-81
2022/04/20 11:46:45;;;;;;;3.90;1.60;;;14.70;56.80;;;;;;5053684;28;20091;-81
2022/04/20 11:49:10;;;;;;;6.15;1.80;;;14.80;59.50;;;;;;5052372;28;20037;-80
2022/04/20 11:51:37;;;;;;;3.45;1.70;;;15.00;56.00;;;;;;5036567;28;20120;-81
2022/04/20 11:54:03;;;;;;;4.05;1.73;;;15.00;58.40;;;;;;5037937;28;20571;-81
2022/04/20 11:56:37;;;;;;;2.47;1.35;;;14.90;56.60;;;;;;5036523;28;20125;-81
2022/04/20 11:59:09;;;;;;;3.00;1.55;;;15.00;60.60;;;;;;5036730;28;20093;-81
2022/04/20 12:01:37;;;;;;;3.28;1.60;;;15.00;57.00;;;;;;5036084;28;20520;-81
2022/04/20 12:04:18;;;;;;;3.17;1.40;;;15.10;60.00;;;;;;5035075;28;20087;-80
2022/04/20 12:06:52;;;;;;;2.20;1.42;;;15.10;59.00;;;;;;5035013;28;20037;-80
2022/04/20 12:09:25;;;;;;;4.53;1.70;;;15.20;57.90;;;;;;5036307;28;20386;-80
2022/04/20 12:11:56;;;;;;;3.97;1.40;;;15.30;57.80;;;;;;5036134;28;20470;-80
2022/04/20 12:14:25;;;;;;;3.10;1.67;;;15.20;58.20;;;;;;5036470;28;20418;-80
2022/04/20 12:16:55;;;;;;;4.07;1.30;;;15.30;56.00;;;;;;5048469;28;20052;-80
2022/04/20 12:19:22;;;;;;;2.38;1.30;;;15.40;58.50;;;;;;5055469;28;20076;-79
2022/04/20 12:21:49;;;;;;;3.58;1.52;;;15.40;56.40;;;;;;5054229;28;20021;-80
2022/04/20 12:24:26;;;;;;;5.22;1.80;;;15.20;56.10;;;;;;5053893;28;20021;-81
2022/04/20 12:26:53;;;;;;;3.33;1.88;;;15.20;56.50;;;;;;5055378;28;20113;-80
2022/04/20 12:29:21;;;;;;;3.15;1.60;;;15.30;56.70;;;;;;5054933;28;20112;-81
2022/04/20 12:31:51;;;;;;;2.95;1.45;;;15.30;55.40;;;;;;5054084;28;20029;-81
2022/04/20 12:34:19;;;;;;;3.25;1.75;;;15.30;56.80;;;;;;5054276;28;20486;-81
2022/04/20 12:37:03;;;;;;;3.03;1.55;;;15.30;55.40;;;;;;5055542;28;20017;-81
2022/04/20 12:39:40;;;;;;;2.20;1.42;;;15.30;55.30;;;;;;5055222;28;20040;-80
2022/04/20 12:42:17;;;;;;;4.43;1.70;;;15.40;56.20;;;;;;5055139;28;20478;-80
2022/04/20 12:44:53;;;;;;;5.72;1.27;;;15.50;57.30;;;;;;5054509;28;20029;-80
2022/04/20 12:47:22;;;;;;;2.85;1.38;;;15.50;56.60;;;;;;5053805;28;20075;-80
2022/04/20 12:49:48;;;;;;;2.80;1.40;;;15.60;56.10;;;;;;5054428;28;20021;-81
2022/04/20 12:52:22;;;;;;;5.88;1.83;;;15.60;56.10;;;;;;5055096;28;20358;-80
2022/04/20 12:55:13;;;;;;;3.15;1.52;;;15.80;56.60;;;;;;5054496;28;20469;-80
2022/04/20 13:03:31;;;;;;;4.82;1.33;;;15.90;54.20;;;;;;5054878;28;20116;-81
2022/04/20 13:05:57;;;;;;;3.30;1.70;;;16.00;53.70;;;;;;5055249;28;20484;-80
2022/04/20 13:08:23;;;;;;;2.80;1.42;;;16.10;54.20;;;;;;5052386;28;20053;-80
2022/04/20 13:10:49;;;;;;;2.45;1.50;;;16.00;53.90;;;;;;5052319;28;20029;-81
2022/04/20 13:13:15;;;;;;;3.58;1.58;;;16.00;55.50;;;;;;5052414;28;20029;-80
2022/04/20 13:15:41;;;;;;;3.05;1.50;;;16.20;56.20;;;;;;5052380;28;20382;-80
2022/04/20 13:18:09;;;;;;;2.72;1.42;;;16.30;54.70;;;;;;5051841;28;20025;-80
2022/04/20 13:20:35;;;;;;;2.72;1.48;;;16.40;54.50;;;;;;5053792;28;20017;-80
2022/04/20 13:23:01;;;;;;;3.47;1.50;;;16.40;54.20;;;;;;5054158;28;20021;-80
2022/04/20 13:28:11;;;;;;;3.60;1.73;;;16.50;54.10;;;;;;5054075;28;20060;-80
2022/04/20 13:30:39;;;;;;;2.92;1.73;;;16.50;53.10;;;;;;5053657;28;20025;-80
2022/04/20 13:33:07;;;;;;;2.90;1.63;;;16.60;54.80;;;;;;5053912;28;20068;-81
2022/04/20 13:35:33;;;;;;;2.72;1.90;;;16.60;54.60;;;;;;5054160;28;20104;-80
2022/04/20 13:37:59;;;;;;;2.50;1.65;;;16.70;54.50;;;;;;5055291;28;20029;-80